Aviation Digital Data Service (ADDS)

Output produced by TAFs form (1827 UTC 28 July 2014)
found at http://www.aviationweather.gov/adds/tafs/
 
KAPA 281753Z VRB04KT 10SM FEW110 FEW150 BKN220 24/13 A3037 RMK AO2 SLP214 TCU DSNT S-W-NW T02440128 10250 20156 58006
KAPA 281737Z 2818/2918 VRB05KT P6SM FEW030 BKN200 
     FM281900 10008KT P6SM SCT040 SCT110 BKN200 
     TEMPO 2822/2902 VRB20G30KT -TSRA BKN050CB 
     FM290200 15014KT P6SM SCT070 BKN120 
     FM290800 20010KT P6SM SCT070 BKN120 
     FM291500 03005KT P6SM SCT030 BKN150